sensor_id;sensor_type;location;lat;lon;timestamp;P1;durP1;ratioP1;P2;durP2;ratioP2
16171;SDS011;8192;53.596;10.166;2023-09-19T00:01:43;18.98;;;17.40;;
16171;SDS011;8192;53.596;10.166;2023-09-19T00:04:12;17.90;;;16.80;;
16171;SDS011;8192;53.596;10.166;2023-09-19T00:06:39;18.95;;;17.52;;
16171;SDS011;8192;53.596;10.166;2023-09-19T00:09:07;19.08;;;17.58;;
16171;SDS011;8192;53.596;10.166;2023-09-19T00:11:36;19.33;;;17.77;;
16171;SDS011;8192;53.596;10.166;2023-09-19T00:14:03;18.77;;;17.38;;
16171;SDS011;8192;53.596;10.166;2023-09-19T00:16:33;18.50;;;17.08;;
16171;SDS011;8192;53.596;10.166;2023-09-19T00:19:01;18.15;;;16.98;;
16171;SDS011;8192;53.596;10.166;2023-09-19T00:21:34;18.45;;;17.02;;
16171;SDS011;8192;53.596;10.166;2023-09-19T00:24:03;18.50;;;17.15;;
16171;SDS011;8192;53.596;10.166;2023-09-19T00:26:31;18.77;;;17.38;;
16171;SDS011;8192;53.596;10.166;2023-09-19T00:28:59;18.58;;;17.10;;
16171;SDS011;8192;53.596;10.166;2023-09-19T00:31:29;18.90;;;17.40;;
16171;SDS011;8192;53.596;10.166;2023-09-19T00:33:56;18.10;;;16.90;;
16171;SDS011;8192;53.596;10.166;2023-09-19T00:36:27;18.38;;;16.92;;
16171;SDS011;8192;53.596;10.166;2023-09-19T00:38:56;18.48;;;16.83;;
16171;SDS011;8192;53.596;10.166;2023-09-19T00:41:23;18.30;;;17.00;;
16171;SDS011;8192;53.596;10.166;2023-09-19T00:43:52;18.42;;;17.10;;
16171;SDS011;8192;53.596;10.166;2023-09-19T00:46:19;19.08;;;17.58;;
16171;SDS011;8192;53.596;10.166;2023-09-19T00:48:46;18.88;;;17.35;;
16171;SDS011;8192;53.596;10.166;2023-09-19T00:51:13;18.48;;;17.08;;
16171;SDS011;8192;53.596;10.166;2023-09-19T00:53:43;18.38;;;17.08;;
16171;SDS011;8192;53.596;10.166;2023-09-19T00:56:14;18.80;;;17.50;;
16171;SDS011;8192;53.596;10.166;2023-09-19T00:58:43;19.02;;;17.63;;
16171;SDS011;8192;53.596;10.166;2023-09-19T01:01:11;18.75;;;17.30;;
16171;SDS011;8192;53.596;10.166;2023-09-19T01:03:40;18.00;;;16.70;;
16171;SDS011;8192;53.596;10.166;2023-09-19T01:06:07;18.85;;;17.33;;
16171;SDS011;8192;53.596;10.166;2023-09-19T01:08:34;18.63;;;17.23;;
16171;SDS011;8192;53.596;10.166;2023-09-19T01:11:04;19.20;;;17.55;;
16171;SDS011;8192;53.596;10.166;2023-09-19T01:13:43;19.00;;;17.55;;
16171;SDS011;8192;53.596;10.166;2023-09-19T01:16:28;18.45;;;17.10;;
16171;SDS011;8192;53.596;10.166;2023-09-19T01:21:54;19.75;;;18.20;;
16171;SDS011;8192;53.596;10.166;2023-09-19T01:24:34;19.63;;;17.90;;
16171;SDS011;8192;53.596;10.166;2023-09-19T01:27:25;19.23;;;17.60;;
16171;SDS011;8192;53.596;10.166;2023-09-19T01:30:17;19.48;;;17.77;;
16171;SDS011;8192;53.596;10.166;2023-09-19T01:32:49;19.60;;;17.90;;
16171;SDS011;8192;53.596;10.166;2023-09-19T01:35:17;19.42;;;17.92;;
16171;SDS011;8192;53.596;10.166;2023-09-19T01:37:44;19.83;;;18.20;;
16171;SDS011;8192;53.596;10.166;2023-09-19T01:40:12;19.50;;;18.10;;
16171;SDS011;8192;53.596;10.166;2023-09-19T01:42:44;19.85;;;18.33;;
16171;SDS011;8192;53.596;10.166;2023-09-19T01:45:20;19.33;;;17.92;;
16171;SDS011;8192;53.596;10.166;2023-09-19T01:47:54;19.83;;;18.20;;
16171;SDS011;8192;53.596;10.166;2023-09-19T01:50:25;19.05;;;17.85;;
16171;SDS011;8192;53.596;10.166;2023-09-19T01:52:59;19.67;;;18.27;;
16171;SDS011;8192;53.596;10.166;2023-09-19T01:55:30;20.15;;;18.45;;
16171;SDS011;8192;53.596;10.166;2023-09-19T01:58:04;19.80;;;18.20;;
16171;SDS011;8192;53.596;10.166;2023-09-19T02:00:36;20.30;;;18.80;;
16171;SDS011;8192;53.596;10.166;2023-09-19T02:03:07;20.13;;;18.63;;
16171;SDS011;8192;53.596;10.166;2023-09-19T02:05:35;19.45;;;17.95;;
16171;SDS011;8192;53.596;10.166;2023-09-19T02:08:02;19.02;;;17.65;;
16171;SDS011;8192;53.596;10.166;2023-09-19T02:10:30;19.80;;;18.30;;
16171;SDS011;8192;53.596;10.166;2023-09-19T02:12:57;19.25;;;17.85;;
16171;SDS011;8192;53.596;10.166;2023-09-19T02:15:25;19.55;;;17.92;;
16171;SDS011;8192;53.596;10.166;2023-09-19T02:17:53;19.63;;;18.13;;
16171;SDS011;8192;53.596;10.166;2023-09-19T02:20:21;19.67;;;18.17;;
16171;SDS011;8192;53.596;10.166;2023-09-19T02:22:48;19.95;;;18.35;;
16171;SDS011;8192;53.596;10.166;2023-09-19T02:25:17;19.92;;;18.50;;
16171;SDS011;8192;53.596;10.166;2023-09-19T02:27:44;19.58;;;18.17;;
16171;SDS011;8192;53.596;10.166;2023-09-19T02:30:12;20.05;;;18.42;;
16171;SDS011;8192;53.596;10.166;2023-09-19T02:32:41;19.83;;;18.30;;
16171;SDS011;8192;53.596;10.166;2023-09-19T02:35:10;21.55;;;19.55;;
16171;SDS011;8192;53.596;10.166;2023-09-19T02:37:39;20.13;;;18.63;;
16171;SDS011;8192;53.596;10.166;2023-09-19T02:40:07;20.30;;;18.80;;
16171;SDS011;8192;53.596;10.166;2023-09-19T02:42:44;20.58;;;19.10;;
16171;SDS011;8192;53.596;10.166;2023-09-19T02:45:14;19.90;;;18.27;;
16171;SDS011;8192;53.596;10.166;2023-09-19T02:47:42;20.10;;;18.60;;
16171;SDS011;8192;53.596;10.166;2023-09-19T02:50:11;19.88;;;18.33;;
16171;SDS011;8192;53.596;10.166;2023-09-19T02:52:40;21.02;;;19.13;;
16171;SDS011;8192;53.596;10.166;2023-09-19T02:55:09;20.38;;;18.75;;
16171;SDS011;8192;53.596;10.166;2023-09-19T02:57:39;20.60;;;18.77;;
16171;SDS011;8192;53.596;10.166;2023-09-19T03:00:08;20.98;;;19.00;;
16171;SDS011;8192;53.596;10.166;2023-09-19T03:02:37;21.00;;;18.80;;
16171;SDS011;8192;53.596;10.166;2023-09-19T03:05:06;19.95;;;18.42;;
16171;SDS011;8192;53.596;10.166;2023-09-19T03:07:38;20.48;;;18.70;;
16171;SDS011;8192;53.596;10.166;2023-09-19T03:10:05;20.02;;;18.50;;
16171;SDS011;8192;53.596;10.166;2023-09-19T03:12:34;20.42;;;18.48;;
16171;SDS011;8192;53.596;10.166;2023-09-19T03:15:01;19.80;;;18.00;;
16171;SDS011;8192;53.596;10.166;2023-09-19T03:17:29;20.02;;;18.42;;
16171;SDS011;8192;53.596;10.166;2023-09-19T03:19:57;20.08;;;18.27;;
16171;SDS011;8192;53.596;10.166;2023-09-19T03:22:25;19.17;;;17.60;;
16171;SDS011;8192;53.596;10.166;2023-09-19T03:24:54;20.45;;;18.67;;
16171;SDS011;8192;53.596;10.166;2023-09-19T03:27:21;19.50;;;17.77;;
16171;SDS011;8192;53.596;10.166;2023-09-19T03:29:48;19.27;;;17.73;;
16171;SDS011;8192;53.596;10.166;2023-09-19T03:32:15;19.85;;;18.20;;
16171;SDS011;8192;53.596;10.166;2023-09-19T03:34:42;20.25;;;18.48;;
16171;SDS011;8192;53.596;10.166;2023-09-19T03:37:09;19.60;;;17.95;;
16171;SDS011;8192;53.596;10.166;2023-09-19T03:39:36;20.13;;;18.33;;
16171;SDS011;8192;53.596;10.166;2023-09-19T03:42:06;19.70;;;18.08;;
16171;SDS011;8192;53.596;10.166;2023-09-19T03:44:33;19.70;;;17.98;;
16171;SDS011;8192;53.596;10.166;2023-09-19T03:47:00;19.67;;;18.17;;
16171;SDS011;8192;53.596;10.166;2023-09-19T03:49:29;19.92;;;18.20;;
16171;SDS011;8192;53.596;10.166;2023-09-19T03:51:56;19.73;;;18.23;;
16171;SDS011;8192;53.596;10.166;2023-09-19T03:54:24;20.35;;;18.58;;
16171;SDS011;8192;53.596;10.166;2023-09-19T03:56:50;19.85;;;18.00;;
16171;SDS011;8192;53.596;10.166;2023-09-19T03:59:20;20.15;;;18.48;;
16171;SDS011;8192;53.596;10.166;2023-09-19T04:01:47;19.52;;;17.95;;
16171;SDS011;8192;53.596;10.166;2023-09-19T04:04:15;20.75;;;18.92;;
16171;SDS011;8192;53.596;10.166;2023-09-19T04:06:43;20.25;;;18.23;;
16171;SDS011;8192;53.596;10.166;2023-09-19T04:09:10;19.20;;;17.63;;
16171;SDS011;8192;53.596;10.166;2023-09-19T04:11:37;19.85;;;18.25;;
16171;SDS011;8192;53.596;10.166;2023-09-19T04:14:04;19.25;;;17.83;;
16171;SDS011;8192;53.596;10.166;2023-09-19T04:16:33;19.23;;;17.75;;
16171;SDS011;8192;53.596;10.166;2023-09-19T04:19:00;19.55;;;17.85;;
16171;SDS011;8192;53.596;10.166;2023-09-19T04:21:28;19.48;;;17.98;;
16171;SDS011;8192;53.596;10.166;2023-09-19T04:23:55;19.13;;;17.77;;
16171;SDS011;8192;53.596;10.166;2023-09-19T04:26:22;19.35;;;17.90;;
16171;SDS011;8192;53.596;10.166;2023-09-19T04:28:51;19.73;;;18.05;;
16171;SDS011;8192;53.596;10.166;2023-09-19T04:31:18;19.90;;;18.17;;
16171;SDS011;8192;53.596;10.166;2023-09-19T04:33:46;19.77;;;18.15;;
16171;SDS011;8192;53.596;10.166;2023-09-19T04:36:13;19.92;;;18.23;;
16171;SDS011;8192;53.596;10.166;2023-09-19T04:38:40;19.67;;;17.98;;
16171;SDS011;8192;53.596;10.166;2023-09-19T04:41:07;19.88;;;18.02;;
16171;SDS011;8192;53.596;10.166;2023-09-19T04:43:34;18.90;;;17.50;;
16171;SDS011;8192;53.596;10.166;2023-09-19T04:46:01;19.85;;;18.08;;
16171;SDS011;8192;53.596;10.166;2023-09-19T04:48:31;19.40;;;17.80;;
16171;SDS011;8192;53.596;10.166;2023-09-19T04:51:01;19.98;;;18.15;;
16171;SDS011;8192;53.596;10.166;2023-09-19T04:53:28;19.58;;;17.98;;
16171;SDS011;8192;53.596;10.166;2023-09-19T04:55:55;19.35;;;17.65;;
16171;SDS011;8192;53.596;10.166;2023-09-19T04:58:23;19.75;;;17.92;;
16171;SDS011;8192;53.596;10.166;2023-09-19T05:00:50;19.17;;;17.63;;
16171;SDS011;8192;53.596;10.166;2023-09-19T05:03:17;19.13;;;17.50;;
16171;SDS011;8192;53.596;10.166;2023-09-19T05:05:46;19.40;;;17.80;;
16171;SDS011;8192;53.596;10.166;2023-09-19T05:08:14;19.58;;;17.88;;
16171;SDS011;8192;53.596;10.166;2023-09-19T05:10:41;20.05;;;18.00;;
16171;SDS011;8192;53.596;10.166;2023-09-19T05:13:08;19.00;;;17.50;;
16171;SDS011;8192;53.596;10.166;2023-09-19T05:15:35;19.23;;;17.50;;
16171;SDS011;8192;53.596;10.166;2023-09-19T05:18:02;19.17;;;17.33;;
16171;SDS011;8192;53.596;10.166;2023-09-19T05:20:31;18.98;;;17.27;;
16171;SDS011;8192;53.596;10.166;2023-09-19T05:22:58;19.60;;;17.77;;
16171;SDS011;8192;53.596;10.166;2023-09-19T05:25:28;19.88;;;17.98;;
16171;SDS011;8192;53.596;10.166;2023-09-19T05:27:57;19.55;;;17.85;;
16171;SDS011;8192;53.596;10.166;2023-09-19T05:30:28;19.23;;;17.38;;
16171;SDS011;8192;53.596;10.166;2023-09-19T05:32:55;19.70;;;17.85;;
16171;SDS011;8192;53.596;10.166;2023-09-19T05:35:23;21.63;;;17.52;;
16171;SDS011;8192;53.596;10.166;2023-09-19T05:37:51;19.60;;;17.83;;
16171;SDS011;8192;53.596;10.166;2023-09-19T05:40:19;19.13;;;17.63;;
16171;SDS011;8192;53.596;10.166;2023-09-19T05:42:48;19.13;;;17.67;;
16171;SDS011;8192;53.596;10.166;2023-09-19T05:45:16;19.10;;;17.50;;
16171;SDS011;8192;53.596;10.166;2023-09-19T05:47:47;18.58;;;17.17;;
16171;SDS011;8192;53.596;10.166;2023-09-19T05:50:15;19.02;;;17.30;;
16171;SDS011;8192;53.596;10.166;2023-09-19T05:52:42;19.45;;;17.48;;
16171;SDS011;8192;53.596;10.166;2023-09-19T05:55:10;18.25;;;16.92;;
16171;SDS011;8192;53.596;10.166;2023-09-19T05:57:37;19.50;;;17.63;;
16171;SDS011;8192;53.596;10.166;2023-09-19T06:00:07;19.60;;;17.48;;
16171;SDS011;8192;53.596;10.166;2023-09-19T06:02:36;18.67;;;17.17;;
16171;SDS011;8192;53.596;10.166;2023-09-19T06:05:05;19.02;;;17.52;;
16171;SDS011;8192;53.596;10.166;2023-09-19T06:07:35;19.00;;;17.17;;
16171;SDS011;8192;53.596;10.166;2023-09-19T06:10:02;19.40;;;17.55;;
16171;SDS011;8192;53.596;10.166;2023-09-19T06:12:38;18.40;;;16.98;;
16171;SDS011;8192;53.596;10.166;2023-09-19T06:15:07;18.83;;;17.23;;
16171;SDS011;8192;53.596;10.166;2023-09-19T06:17:38;19.23;;;17.52;;
16171;SDS011;8192;53.596;10.166;2023-09-19T06:20:05;19.85;;;17.75;;
16171;SDS011;8192;53.596;10.166;2023-09-19T06:22:37;19.45;;;17.65;;
16171;SDS011;8192;53.596;10.166;2023-09-19T06:25:06;20.35;;;17.73;;
16171;SDS011;8192;53.596;10.166;2023-09-19T06:27:36;19.30;;;17.33;;
16171;SDS011;8192;53.596;10.166;2023-09-19T06:30:04;18.52;;;16.95;;
16171;SDS011;8192;53.596;10.166;2023-09-19T06:32:35;19.08;;;17.38;;
16171;SDS011;8192;53.596;10.166;2023-09-19T06:35:02;18.92;;;17.23;;
16171;SDS011;8192;53.596;10.166;2023-09-19T06:37:33;19.25;;;17.48;;
16171;SDS011;8192;53.596;10.166;2023-09-19T06:40:00;18.48;;;17.00;;
16171;SDS011;8192;53.596;10.166;2023-09-19T06:42:28;19.30;;;17.27;;
16171;SDS011;8192;53.596;10.166;2023-09-19T06:44:54;19.27;;;17.58;;
16171;SDS011;8192;53.596;10.166;2023-09-19T06:47:23;21.00;;;17.92;;
16171;SDS011;8192;53.596;10.166;2023-09-19T06:49:50;21.50;;;17.80;;
16171;SDS011;8192;53.596;10.166;2023-09-19T06:52:18;19.48;;;17.80;;
16171;SDS011;8192;53.596;10.166;2023-09-19T06:54:47;19.25;;;17.60;;
16171;SDS011;8192;53.596;10.166;2023-09-19T06:57:15;19.58;;;17.65;;
16171;SDS011;8192;53.596;10.166;2023-09-19T06:59:42;19.20;;;17.40;;
16171;SDS011;8192;53.596;10.166;2023-09-19T07:02:10;19.95;;;17.88;;
16171;SDS011;8192;53.596;10.166;2023-09-19T07:04:40;21.48;;;17.67;;
16171;SDS011;8192;53.596;10.166;2023-09-19T07:07:09;18.75;;;17.55;;
16171;SDS011;8192;53.596;10.166;2023-09-19T07:09:42;19.38;;;17.55;;
16171;SDS011;8192;53.596;10.166;2023-09-19T07:12:09;19.33;;;17.58;;
16171;SDS011;8192;53.596;10.166;2023-09-19T07:14:37;20.02;;;18.13;;
16171;SDS011;8192;53.596;10.166;2023-09-19T07:17:04;19.40;;;17.85;;
16171;SDS011;8192;53.596;10.166;2023-09-19T07:19:30;19.20;;;17.67;;
16171;SDS011;8192;53.596;10.166;2023-09-19T07:21:59;19.20;;;17.35;;
16171;SDS011;8192;53.596;10.166;2023-09-19T07:24:27;18.95;;;17.40;;
16171;SDS011;8192;53.596;10.166;2023-09-19T07:26:54;19.27;;;17.45;;
16171;SDS011;8192;53.596;10.166;2023-09-19T07:29:21;21.65;;;18.02;;
16171;SDS011;8192;53.596;10.166;2023-09-19T07:31:48;18.48;;;17.05;;
16171;SDS011;8192;53.596;10.166;2023-09-19T07:34:15;19.00;;;17.38;;
16171;SDS011;8192;53.596;10.166;2023-09-19T07:36:43;19.50;;;17.48;;
16171;SDS011;8192;53.596;10.166;2023-09-19T07:39:14;20.20;;;18.13;;
16171;SDS011;8192;53.596;10.166;2023-09-19T07:41:41;21.10;;;18.13;;
16171;SDS011;8192;53.596;10.166;2023-09-19T07:44:08;19.75;;;18.05;;
16171;SDS011;8192;53.596;10.166;2023-09-19T07:46:35;19.77;;;17.92;;
16171;SDS011;8192;53.596;10.166;2023-09-19T07:49:03;19.73;;;18.00;;
16171;SDS011;8192;53.596;10.166;2023-09-19T07:51:31;19.52;;;17.92;;
16171;SDS011;8192;53.596;10.166;2023-09-19T07:53:59;19.55;;;17.60;;
16171;SDS011;8192;53.596;10.166;2023-09-19T07:56:27;19.80;;;18.10;;
16171;SDS011;8192;53.596;10.166;2023-09-19T07:58:54;19.92;;;17.95;;
16171;SDS011;8192;53.596;10.166;2023-09-19T08:01:22;19.48;;;17.58;;
16171;SDS011;8192;53.596;10.166;2023-09-19T08:03:52;20.27;;;17.95;;
16171;SDS011;8192;53.596;10.166;2023-09-19T08:06:19;22.17;;;19.95;;
16171;SDS011;8192;53.596;10.166;2023-09-19T08:08:46;26.60;;;23.92;;
16171;SDS011;8192;53.596;10.166;2023-09-19T08:11:14;27.48;;;22.63;;
16171;SDS011;8192;53.596;10.166;2023-09-19T08:13:45;28.25;;;22.95;;
16171;SDS011;8192;53.596;10.166;2023-09-19T08:16:14;24.10;;;21.67;;
16171;SDS011;8192;53.596;10.166;2023-09-19T08:18:46;24.67;;;21.98;;
16171;SDS011;8192;53.596;10.166;2023-09-19T08:21:14;24.63;;;21.77;;
16171;SDS011;8192;53.596;10.166;2023-09-19T08:23:41;24.23;;;21.42;;
16171;SDS011;8192;53.596;10.166;2023-09-19T08:26:08;22.80;;;20.60;;
16171;SDS011;8192;53.596;10.166;2023-09-19T08:28:35;22.92;;;20.77;;
16171;SDS011;8192;53.596;10.166;2023-09-19T08:31:07;22.65;;;20.52;;
16171;SDS011;8192;53.596;10.166;2023-09-19T08:33:36;25.02;;;20.38;;
16171;SDS011;8192;53.596;10.166;2023-09-19T08:36:04;22.73;;;20.60;;
16171;SDS011;8192;53.596;10.166;2023-09-19T08:38:34;23.17;;;20.73;;
16171;SDS011;8192;53.596;10.166;2023-09-19T08:41:04;23.13;;;20.35;;
16171;SDS011;8192;53.596;10.166;2023-09-19T08:43:32;22.55;;;20.25;;
16171;SDS011;8192;53.596;10.166;2023-09-19T08:46:03;23.02;;;20.63;;
16171;SDS011;8192;53.596;10.166;2023-09-19T08:48:36;23.67;;;20.25;;
16171;SDS011;8192;53.596;10.166;2023-09-19T08:51:06;22.45;;;20.13;;
16171;SDS011;8192;53.596;10.166;2023-09-19T08:53:36;22.83;;;20.52;;
16171;SDS011;8192;53.596;10.166;2023-09-19T08:56:11;22.45;;;20.20;;
16171;SDS011;8192;53.596;10.166;2023-09-19T08:58:43;24.92;;;20.67;;
16171;SDS011;8192;53.596;10.166;2023-09-19T09:01:14;22.50;;;20.23;;
16171;SDS011;8192;53.596;10.166;2023-09-19T09:03:43;22.85;;;20.52;;
16171;SDS011;8192;53.596;10.166;2023-09-19T09:06:13;22.35;;;20.15;;
16171;SDS011;8192;53.596;10.166;2023-09-19T09:08:41;22.17;;;20.10;;
16171;SDS011;8192;53.596;10.166;2023-09-19T09:11:09;24.45;;;20.67;;
16171;SDS011;8192;53.596;10.166;2023-09-19T09:13:37;22.17;;;19.95;;
16171;SDS011;8192;53.596;10.166;2023-09-19T09:16:06;22.98;;;20.63;;
16171;SDS011;8192;53.596;10.166;2023-09-19T09:18:36;22.02;;;19.73;;
16171;SDS011;8192;53.596;10.166;2023-09-19T09:21:03;22.17;;;20.02;;
16171;SDS011;8192;53.596;10.166;2023-09-19T09:23:30;22.52;;;20.27;;
16171;SDS011;8192;53.596;10.166;2023-09-19T09:25:58;24.90;;;20.75;;
16171;SDS011;8192;53.596;10.166;2023-09-19T09:28:28;23.48;;;21.10;;
16171;SDS011;8192;53.596;10.166;2023-09-19T09:30:56;23.27;;;20.70;;
16171;SDS011;8192;53.596;10.166;2023-09-19T09:33:24;23.42;;;20.95;;
16171;SDS011;8192;53.596;10.166;2023-09-19T09:35:53;22.67;;;20.55;;
16171;SDS011;8192;53.596;10.166;2023-09-19T09:38:43;23.02;;;20.35;;
16171;SDS011;8192;53.596;10.166;2023-09-19T09:41:11;23.70;;;21.20;;
16171;SDS011;8192;53.596;10.166;2023-09-19T09:43:41;22.80;;;20.38;;
16171;SDS011;8192;53.596;10.166;2023-09-19T09:46:12;23.25;;;20.83;;
16171;SDS011;8192;53.596;10.166;2023-09-19T09:48:58;22.42;;;20.30;;
16171;SDS011;8192;53.596;10.166;2023-09-19T09:52:01;22.02;;;20.08;;
16171;SDS011;8192;53.596;10.166;2023-09-19T09:54:34;22.17;;;20.00;;
16171;SDS011;8192;53.596;10.166;2023-09-19T09:57:03;21.58;;;19.60;;
16171;SDS011;8192;53.596;10.166;2023-09-19T09:59:45;21.75;;;19.55;;
16171;SDS011;8192;53.596;10.166;2023-09-19T10:02:13;21.23;;;19.08;;
16171;SDS011;8192;53.596;10.166;2023-09-19T10:04:41;20.58;;;19.05;;
16171;SDS011;8192;53.596;10.166;2023-09-19T10:07:25;21.23;;;19.38;;
16171;SDS011;8192;53.596;10.166;2023-09-19T10:10:01;21.70;;;19.45;;
16171;SDS011;8192;53.596;10.166;2023-09-19T10:12:46;21.48;;;19.35;;
16171;SDS011;8192;53.596;10.166;2023-09-19T10:15:15;21.23;;;19.20;;
16171;SDS011;8192;53.596;10.166;2023-09-19T10:17:45;20.98;;;19.10;;
16171;SDS011;8192;53.596;10.166;2023-09-19T10:20:13;21.50;;;19.35;;
16171;SDS011;8192;53.596;10.166;2023-09-19T10:22:50;20.33;;;18.42;;
16171;SDS011;8192;53.596;10.166;2023-09-19T10:25:24;22.23;;;18.33;;
16171;SDS011;8192;53.596;10.166;2023-09-19T10:27:54;20.45;;;18.42;;
16171;SDS011;8192;53.596;10.166;2023-09-19T10:30:23;20.25;;;18.38;;
16171;SDS011;8192;53.596;10.166;2023-09-19T10:32:54;20.55;;;18.35;;
16171;SDS011;8192;53.596;10.166;2023-09-19T10:35:26;19.42;;;17.77;;
16171;SDS011;8192;53.596;10.166;2023-09-19T10:37:56;20.05;;;18.10;;
16171;SDS011;8192;53.596;10.166;2023-09-19T10:40:26;19.67;;;18.10;;
16171;SDS011;8192;53.596;10.166;2023-09-19T10:43:00;19.55;;;17.88;;
16171;SDS011;8192;53.596;10.166;2023-09-19T10:45:30;20.52;;;18.17;;
16171;SDS011;8192;53.596;10.166;2023-09-19T10:47:58;19.95;;;18.08;;
16171;SDS011;8192;53.596;10.166;2023-09-19T10:50:26;19.52;;;17.83;;
16171;SDS011;8192;53.596;10.166;2023-09-19T10:53:00;21.83;;;18.27;;
16171;SDS011;8192;53.596;10.166;2023-09-19T10:55:33;19.05;;;17.48;;
16171;SDS011;8192;53.596;10.166;2023-09-19T10:58:02;19.73;;;17.63;;
16171;SDS011;8192;53.596;10.166;2023-09-19T11:00:49;19.85;;;18.02;;
16171;SDS011;8192;53.596;10.166;2023-09-19T11:03:21;18.80;;;17.35;;
16171;SDS011;8192;53.596;10.166;2023-09-19T11:08:58;19.58;;;17.95;;
16171;SDS011;8192;53.596;10.166;2023-09-19T11:14:29;19.33;;;17.60;;
16171;SDS011;8192;53.596;10.166;2023-09-19T11:20:26;19.48;;;17.90;;
16171;SDS011;8192;53.596;10.166;2023-09-19T11:23:18;20.27;;;18.25;;
16171;SDS011;8192;53.596;10.166;2023-09-19T11:25:52;19.70;;;17.63;;
16171;SDS011;8192;53.596;10.166;2023-09-19T11:28:32;19.63;;;17.80;;
16171;SDS011;8192;53.596;10.166;2023-09-19T11:34:46;19.20;;;17.45;;
16171;SDS011;8192;53.596;10.166;2023-09-19T11:40:25;18.88;;;17.38;;
16171;SDS011;8192;53.596;10.166;2023-09-19T11:42:54;19.55;;;17.27;;
16171;SDS011;8192;53.596;10.166;2023-09-19T11:48:26;19.00;;;17.30;;
16171;SDS011;8192;53.596;10.166;2023-09-19T11:50:55;18.92;;;17.10;;
16171;SDS011;8192;53.596;10.166;2023-09-19T11:53:24;19.25;;;17.55;;
16171;SDS011;8192;53.596;10.166;2023-09-19T11:56:05;18.80;;;17.10;;
16171;SDS011;8192;53.596;10.166;2023-09-19T11:58:36;19.17;;;17.27;;
16171;SDS011;8192;53.596;10.166;2023-09-19T12:01:05;19.15;;;17.27;;
16171;SDS011;8192;53.596;10.166;2023-09-19T12:03:38;18.95;;;17.20;;
16171;SDS011;8192;53.596;10.166;2023-09-19T12:06:12;19.13;;;17.40;;
16171;SDS011;8192;53.596;10.166;2023-09-19T12:08:40;18.92;;;17.35;;
16171;SDS011;8192;53.596;10.166;2023-09-19T12:11:11;18.85;;;17.27;;
16171;SDS011;8192;53.596;10.166;2023-09-19T12:13:44;18.63;;;16.92;;
16171;SDS011;8192;53.596;10.166;2023-09-19T12:16:14;18.75;;;17.10;;
16171;SDS011;8192;53.596;10.166;2023-09-19T12:18:49;19.63;;;17.77;;
16171;SDS011;8192;53.596;10.166;2023-09-19T12:21:23;19.48;;;17.67;;
16171;SDS011;8192;53.596;10.166;2023-09-19T12:26:44;19.10;;;17.45;;
16171;SDS011;8192;53.596;10.166;2023-09-19T12:29:15;19.10;;;17.40;;
16171;SDS011;8192;53.596;10.166;2023-09-19T12:31:50;19.17;;;17.25;;
16171;SDS011;8192;53.596;10.166;2023-09-19T12:34:20;18.25;;;16.75;;
16171;SDS011;8192;53.596;10.166;2023-09-19T12:36:48;19.08;;;17.33;;
16171;SDS011;8192;53.596;10.166;2023-09-19T12:39:24;19.63;;;17.67;;
16171;SDS011;8192;53.596;10.166;2023-09-19T12:41:52;18.60;;;17.13;;
16171;SDS011;8192;53.596;10.166;2023-09-19T12:44:21;19.88;;;17.88;;
16171;SDS011;8192;53.596;10.166;2023-09-19T12:46:50;19.92;;;18.02;;
16171;SDS011;8192;53.596;10.166;2023-09-19T12:49:18;19.42;;;17.52;;
16171;SDS011;8192;53.596;10.166;2023-09-19T12:51:46;19.30;;;17.75;;
16171;SDS011;8192;53.596;10.166;2023-09-19T12:54:13;18.88;;;17.38;;
16171;SDS011;8192;53.596;10.166;2023-09-19T12:56:42;19.70;;;17.80;;
16171;SDS011;8192;53.596;10.166;2023-09-19T12:59:14;19.25;;;17.33;;
16171;SDS011;8192;53.596;10.166;2023-09-19T13:01:43;19.60;;;17.67;;
16171;SDS011;8192;53.596;10.166;2023-09-19T13:04:15;18.90;;;17.27;;
16171;SDS011;8192;53.596;10.166;2023-09-19T13:06:51;19.40;;;17.60;;
16171;SDS011;8192;53.596;10.166;2023-09-19T13:09:20;19.38;;;17.75;;
16171;SDS011;8192;53.596;10.166;2023-09-19T13:11:49;19.70;;;17.50;;
16171;SDS011;8192;53.596;10.166;2023-09-19T13:14:20;19.80;;;17.92;;
16171;SDS011;8192;53.596;10.166;2023-09-19T13:16:57;19.17;;;17.40;;
16171;SDS011;8192;53.596;10.166;2023-09-19T13:19:35;19.73;;;17.70;;
16171;SDS011;8192;53.596;10.166;2023-09-19T13:25:05;18.55;;;16.95;;
16171;SDS011;8192;53.596;10.166;2023-09-19T13:27:38;18.63;;;17.33;;
16171;SDS011;8192;53.596;10.166;2023-09-19T13:30:06;19.40;;;17.33;;
16171;SDS011;8192;53.596;10.166;2023-09-19T13:32:35;19.38;;;17.50;;
16171;SDS011;8192;53.596;10.166;2023-09-19T13:35:04;19.02;;;17.30;;
16171;SDS011;8192;53.596;10.166;2023-09-19T13:37:33;19.08;;;17.25;;
16171;SDS011;8192;53.596;10.166;2023-09-19T13:40:03;19.23;;;17.30;;
16171;SDS011;8192;53.596;10.166;2023-09-19T13:42:31;18.85;;;17.35;;
16171;SDS011;8192;53.596;10.166;2023-09-19T13:44:58;18.30;;;16.88;;
16171;SDS011;8192;53.596;10.166;2023-09-19T13:47:25;18.73;;;16.77;;
16171;SDS011;8192;53.596;10.166;2023-09-19T13:49:53;19.92;;;17.80;;
16171;SDS011;8192;53.596;10.166;2023-09-19T13:52:20;18.42;;;17.00;;
16171;SDS011;8192;53.596;10.166;2023-09-19T13:54:48;19.23;;;17.38;;
16171;SDS011;8192;53.596;10.166;2023-09-19T13:57:16;19.05;;;17.42;;
16171;SDS011;8192;53.596;10.166;2023-09-19T13:59:43;19.98;;;18.02;;
16171;SDS011;8192;53.596;10.166;2023-09-19T14:02:10;19.58;;;17.98;;
16171;SDS011;8192;53.596;10.166;2023-09-19T14:04:39;20.77;;;17.70;;
16171;SDS011;8192;53.596;10.166;2023-09-19T14:07:08;19.42;;;17.50;;
16171;SDS011;8192;53.596;10.166;2023-09-19T14:09:35;19.30;;;17.52;;
16171;SDS011;8192;53.596;10.166;2023-09-19T14:12:03;18.45;;;16.95;;
16171;SDS011;8192;53.596;10.166;2023-09-19T14:14:30;18.65;;;16.92;;
16171;SDS011;8192;53.596;10.166;2023-09-19T14:16:57;18.13;;;16.60;;
16171;SDS011;8192;53.596;10.166;2023-09-19T14:19:25;19.38;;;17.60;;
16171;SDS011;8192;53.596;10.166;2023-09-19T14:21:53;19.85;;;17.35;;
16171;SDS011;8192;53.596;10.166;2023-09-19T14:24:22;19.67;;;17.70;;
16171;SDS011;8192;53.596;10.166;2023-09-19T14:26:49;19.77;;;17.98;;
16171;SDS011;8192;53.596;10.166;2023-09-19T14:29:16;19.45;;;17.75;;
16171;SDS011;8192;53.596;10.166;2023-09-19T14:31:44;19.13;;;17.35;;
16171;SDS011;8192;53.596;10.166;2023-09-19T14:34:11;20.90;;;17.27;;
16171;SDS011;8192;53.596;10.166;2023-09-19T14:36:39;19.10;;;17.50;;
16171;SDS011;8192;53.596;10.166;2023-09-19T14:39:07;19.15;;;17.52;;
16171;SDS011;8192;53.596;10.166;2023-09-19T14:41:35;18.90;;;17.08;;
16171;SDS011;8192;53.596;10.166;2023-09-19T14:44:02;18.13;;;16.73;;
16171;SDS011;8192;53.596;10.166;2023-09-19T14:46:30;19.70;;;17.73;;
16171;SDS011;8192;53.596;10.166;2023-09-19T14:48:58;19.60;;;17.50;;
16171;SDS011;8192;53.596;10.166;2023-09-19T14:51:28;18.65;;;17.17;;
16171;SDS011;8192;53.596;10.166;2023-09-19T14:53:56;19.00;;;17.08;;
16171;SDS011;8192;53.596;10.166;2023-09-19T14:56:29;21.80;;;17.35;;
16171;SDS011;8192;53.596;10.166;2023-09-19T14:58:57;18.15;;;16.70;;
16171;SDS011;8192;53.596;10.166;2023-09-19T15:01:24;19.00;;;17.40;;
16171;SDS011;8192;53.596;10.166;2023-09-19T15:03:51;19.52;;;17.20;;